Time;durP1;ratioP1;P1;durP2;ratioP2;P2;SDS_P1;SDS_P2;PMS_P1;PMS_P2;Temp;Humidity;BMP_temperature;BMP_pressure;BME280_temperature;BME280_humidity;BME280_pressure;Samples;Min_cycle;Max_cycle;Signal;HPM_P1;HPM_P2
2021/01/07 00:01:33;;;;;;;12.77;7.55;;;4.00;99.90;;;;;;6370184;22;19998;-56
2021/01/07 00:03:58;;;;;;;14.02;8.73;;;4.00;99.90;;;;;;6370415;22;19998;-56
2021/01/07 00:06:24;;;;;;;12.77;7.95;;;4.00;99.90;;;;;;6370317;22;20055;-57
2021/01/07 00:08:52;;;;;;;11.30;8.23;;;3.90;99.90;;;;;;6370207;22;20176;-56
2021/01/07 00:11:18;;;;;;;13.02;8.57;;;3.90;99.90;;;;;;6370476;22;19999;-56
2021/01/07 00:13:44;;;;;;;15.35;9.25;;;3.90;99.90;;;;;;6370217;22;20006;-56
2021/01/07 00:16:10;;;;;;;14.02;8.80;;;3.90;99.90;;;;;;6370305;22;20022;-56
2021/01/07 00:18:36;;;;;;;16.52;9.23;;;3.80;99.90;;;;;;6370242;22;20013;-56
2021/01/07 00:21:02;;;;;;;14.85;9.00;;;3.80;99.90;;;;;;6369878;22;20013;-56
2021/01/07 00:23:27;;;;;;;12.77;8.10;;;3.80;99.90;;;;;;6370192;22;20013;-56
2021/01/07 00:25:55;;;;;;;14.02;10.38;;;3.80;99.90;;;;;;6370100;22;20002;-56
2021/01/07 00:28:22;;;;;;;19.95;11.40;;;3.60;99.90;;;;;;6369914;22;20015;-56
2021/01/07 00:30:49;;;;;;;15.77;10.85;;;3.30;99.90;;;;;;6370034;22;19998;-56
2021/01/07 00:33:16;;;;;;;15.07;10.23;;;3.10;99.90;;;;;;6370214;22;20455;-56
2021/01/07 00:35:42;;;;;;;16.20;11.68;;;3.10;99.90;;;;;;6369905;22;19998;-56
2021/01/07 00:38:08;;;;;;;19.05;11.25;;;3.10;99.90;;;;;;6369993;22;20010;-56
2021/01/07 00:40:35;;;;;;;18.83;11.02;;;3.10;99.90;;;;;;6369967;22;19998;-56
2021/01/07 00:43:02;;;;;;;21.20;12.43;;;3.10;99.90;;;;;;6369811;22;19998;-57
2021/01/07 00:45:28;;;;;;;19.85;11.88;;;3.10;99.90;;;;;;6370059;22;20051;-56
2021/01/07 00:47:54;;;;;;;16.90;10.60;;;3.10;99.90;;;;;;6369822;22;20097;-56
2021/01/07 00:50:21;;;;;;;19.23;11.48;;;3.10;99.90;;;;;;6341763;22;19998;-57
2021/01/07 00:52:47;;;;;;;18.85;11.50;;;3.10;99.90;;;;;;6369980;22;20063;-56
2021/01/07 00:55:15;;;;;;;18.55;11.60;;;3.10;99.90;;;;;;6370065;22;19998;-56
2021/01/07 00:57:42;;;;;;;20.17;12.02;;;3.00;99.90;;;;;;6341984;22;20439;-56
2021/01/07 01:00:10;;;;;;;21.15;12.57;;;2.90;99.90;;;;;;6369848;22;20074;-56
2021/01/07 01:02:36;;;;;;;19.45;11.93;;;2.90;99.90;;;;;;6369705;22;20010;-57
2021/01/07 01:05:04;;;;;;;22.67;13.75;;;2.90;99.90;;;;;;6369795;22;20004;-56
2021/01/07 01:07:30;;;;;;;20.10;12.05;;;2.90;99.90;;;;;;6369689;22;20010;-56
2021/01/07 01:09:56;;;;;;;20.85;12.65;;;2.80;99.90;;;;;;6369558;22;20033;-56
2021/01/07 01:12:22;;;;;;;20.55;12.90;;;2.80;99.90;;;;;;6369690;22;20009;-56
2021/01/07 01:14:47;;;;;;;20.48;12.70;;;2.90;99.90;;;;;;6369791;22;20002;-56
2021/01/07 01:17:13;;;;;;;21.92;12.98;;;2.90;99.90;;;;;;6369477;22;20003;-56
2021/01/07 01:19:40;;;;;;;20.42;12.88;;;2.90;99.90;;;;;;6369664;22;20061;-56
2021/01/07 01:22:05;;;;;;;20.35;12.40;;;2.90;99.90;;;;;;6369526;22;20010;-56
2021/01/07 01:24:31;;;;;;;21.05;12.77;;;2.90;99.90;;;;;;6369450;22;20014;-57
2021/01/07 01:27:01;;;;;;;21.92;12.57;;;2.90;99.90;;;;;;6369639;22;19998;-56
2021/01/07 01:29:28;;;;;;;22.20;12.73;;;3.00;99.90;;;;;;6369605;22;20343;-56
2021/01/07 01:31:54;;;;;;;20.92;13.45;;;3.00;99.90;;;;;;6341484;22;20055;-56
2021/01/07 01:34:21;;;;;;;21.08;12.13;;;3.10;99.90;;;;;;6369577;22;20017;-56
2021/01/07 01:36:47;;;;;;;18.65;12.25;;;3.10;99.90;;;;;;6369446;22;20058;-56
2021/01/07 01:39:15;;;;;;;19.55;12.20;;;3.10;99.90;;;;;;6369382;22;20022;-57
2021/01/07 01:41:42;;;;;;;22.52;13.65;;;3.00;99.90;;;;;;6369574;22;19999;-56
2021/01/07 01:44:12;;;;;;;26.75;15.23;;;3.00;99.90;;;;;;6369426;22;19998;-56
2021/01/07 01:46:38;;;;;;;20.45;12.65;;;3.00;99.90;;;;;;6369330;22;20006;-56
2021/01/07 01:49:06;;;;;;;19.25;11.95;;;2.90;99.90;;;;;;6369300;22;20010;-56
2021/01/07 01:51:33;;;;;;;18.73;12.60;;;2.80;99.90;;;;;;6369235;22;20006;-56
2021/01/07 01:53:59;;;;;;;20.13;12.98;;;2.80;99.90;;;;;;6369423;22;20428;-57
2021/01/07 01:56:25;;;;;;;19.95;12.38;;;2.80;99.90;;;;;;6369241;22;20377;-56
2021/01/07 01:58:51;;;;;;;25.00;13.52;;;2.80;99.90;;;;;;6369271;22;20033;-57
2021/01/07 02:01:18;;;;;;;25.20;13.75;;;2.70;99.90;;;;;;6369422;22;20003;-56
2021/01/07 02:03:45;;;;;;;24.95;13.15;;;2.70;99.90;;;;;;6369343;22;19999;-56
2021/01/07 02:06:13;;;;;;;22.20;13.55;;;2.70;99.90;;;;;;6369154;22;20055;-56
2021/01/07 02:08:44;;;;;;;21.25;13.52;;;2.70;99.90;;;;;;6369248;22;20010;-56
2021/01/07 02:11:15;;;;;;;21.48;13.27;;;2.80;99.90;;;;;;6369323;22;20495;-57
2021/01/07 02:13:46;;;;;;;23.92;14.18;;;2.70;99.90;;;;;;6369268;22;20037;-56
2021/01/07 02:16:22;;;;;;;24.80;12.90;;;2.70;99.90;;;;;;6369287;22;20372;-57
2021/01/07 02:18:48;;;;;;;20.38;13.38;;;2.70;99.90;;;;;;6369157;22;20013;-56
2021/01/07 02:21:14;;;;;;;20.77;13.05;;;2.70;99.90;;;;;;6369098;22;20466;-56
2021/01/07 02:23:50;;;;;;;17.77;12.38;;;2.70;99.90;;;;;;6369177;22;20085;-56
2021/01/07 02:26:20;;;;;;;19.00;12.52;;;2.70;99.90;;;;;;6368996;22;20010;-56
2021/01/07 02:28:47;;;;;;;23.10;14.13;;;2.60;99.90;;;;;;6369076;22;20216;-57
2021/01/07 02:31:14;;;;;;;19.63;12.88;;;2.60;99.90;;;;;;6369059;22;20091;-57
2021/01/07 02:33:40;;;;;;;23.15;14.55;;;2.50;99.90;;;;;;6369210;22;20006;-57
2021/01/07 02:36:06;;;;;;;24.42;14.82;;;2.40;99.90;;;;;;6369226;22;20093;-56
2021/01/07 02:38:33;;;;;;;23.42;14.43;;;2.30;99.90;;;;;;6368992;22;20002;-57
2021/01/07 02:40:59;;;;;;;22.13;12.98;;;2.20;99.90;;;;;;6369201;22;20033;-56
2021/01/07 02:43:25;;;;;;;24.10;14.05;;;2.10;99.90;;;;;;6369131;22;20404;-56
2021/01/07 02:45:51;;;;;;;23.90;15.38;;;2.10;99.90;;;;;;6369074;22;20002;-57
2021/01/07 02:48:17;;;;;;;23.85;14.15;;;2.00;99.90;;;;;;6369056;22;20010;-56
2021/01/07 02:50:43;;;;;;;33.28;15.77;;;1.90;99.90;;;;;;6369090;22;20439;-56
2021/01/07 02:53:08;;;;;;;31.50;15.77;;;2.00;99.90;;;;;;6368955;22;20041;-57
2021/01/07 02:55:34;;;;;;;37.92;17.80;;;2.00;99.90;;;;;;6369092;22;20033;-57
2021/01/07 02:58:00;;;;;;;37.08;18.00;;;1.90;99.90;;;;;;6369064;22;20051;-56
2021/01/07 03:00:26;;;;;;;34.35;16.85;;;1.80;99.90;;;;;;6369003;22;20339;-57
2021/01/07 03:02:52;;;;;;;34.42;17.23;;;1.80;99.90;;;;;;6369190;22;20005;-56
2021/01/07 03:05:18;;;;;;;28.30;16.88;;;1.70;99.90;;;;;;6369083;22;20148;-56
2021/01/07 03:07:43;;;;;;;26.75;16.42;;;1.70;99.90;;;;;;6369930;22;20313;-57
2021/01/07 03:10:10;;;;;;;30.45;16.85;;;1.70;99.90;;;;;;6370961;22;20006;-57
2021/01/07 03:12:36;;;;;;;25.83;16.27;;;1.70;99.90;;;;;;6370709;22;20005;-57
2021/01/07 03:15:03;;;;;;;29.98;16.02;;;1.60;99.90;;;;;;6370808;22;20340;-56
2021/01/07 03:17:28;;;;;;;27.25;15.75;;;1.60;99.90;;;;;;6370882;22;19999;-56
2021/01/07 03:19:54;;;;;;;30.42;16.13;;;1.60;99.90;;;;;;6370910;22;19998;-57
2021/01/07 03:22:20;;;;;;;25.40;15.63;;;1.60;99.90;;;;;;6370616;22;20468;-57
2021/01/07 03:24:46;;;;;;;24.48;16.20;;;1.60;99.90;;;;;;6370768;22;20007;-57
2021/01/07 03:27:13;;;;;;;26.50;15.77;;;1.60;99.90;;;;;;6370552;22;20081;-57
2021/01/07 03:29:39;;;;;;;28.85;16.20;;;1.60;99.90;;;;;;6370820;22;20041;-57
2021/01/07 03:32:05;;;;;;;29.02;16.88;;;1.60;99.90;;;;;;6370657;22;19994;-56
2021/01/07 03:34:31;;;;;;;24.25;14.50;;;1.60;99.90;;;;;;6370670;22;20021;-57
2021/01/07 03:36:56;;;;;;;30.58;16.45;;;1.60;99.90;;;;;;6370927;22;20002;-57
2021/01/07 03:39:22;;;;;;;25.45;14.88;;;1.60;99.90;;;;;;6370631;22;20031;-56
2021/01/07 03:41:48;;;;;;;24.30;14.88;;;1.60;99.90;;;;;;6370494;22;20002;-56
2021/01/07 03:44:14;;;;;;;28.42;16.27;;;1.60;99.90;;;;;;6370712;22;20344;-57
2021/01/07 03:46:40;;;;;;;26.17;14.65;;;1.60;99.90;;;;;;6370542;22;20002;-56
2021/01/07 03:49:06;;;;;;;22.33;14.20;;;1.60;99.90;;;;;;6370375;22;20021;-57
2021/01/07 03:51:33;;;;;;;25.15;14.40;;;1.70;99.90;;;;;;6370630;22;19998;-57
2021/01/07 03:53:59;;;;;;;26.63;15.63;;;1.70;99.90;;;;;;6370513;22;20006;-57
2021/01/07 03:56:25;;;;;;;25.27;14.88;;;1.70;99.90;;;;;;6370423;22;20002;-57
2021/01/07 03:58:50;;;;;;;25.63;15.55;;;1.80;99.90;;;;;;6370466;22;20002;-57
2021/01/07 04:01:17;;;;;;;21.35;15.18;;;1.70;99.90;;;;;;6370251;22;20006;-56
2021/01/07 04:03:43;;;;;;;27.30;16.30;;;1.80;99.90;;;;;;6370209;22;20013;-57
2021/01/07 04:06:09;;;;;;;28.90;15.25;;;1.80;99.90;;;;;;6370370;22;20385;-56
2021/01/07 04:08:36;;;;;;;27.20;15.10;;;1.90;99.90;;;;;;6370257;22;20329;-57
2021/01/07 04:11:02;;;;;;;22.45;14.40;;;1.90;99.90;;;;;;6370136;22;20412;-57
2021/01/07 04:13:29;;;;;;;25.20;15.25;;;1.90;99.90;;;;;;6370277;22;20010;-57
2021/01/07 04:15:55;;;;;;;24.65;15.27;;;1.90;99.90;;;;;;6370329;22;19999;-57
2021/01/07 04:18:21;;;;;;;29.30;16.30;;;1.80;99.90;;;;;;6370004;22;20617;-57
2021/01/07 04:20:47;;;;;;;27.48;15.48;;;1.70;99.90;;;;;;6370047;22;20105;-57
2021/01/07 04:23:12;;;;;;;25.40;16.50;;;1.80;99.90;;;;;;6370215;22;20432;-57
2021/01/07 04:25:38;;;;;;;28.27;15.20;;;1.80;99.90;;;;;;6370077;22;20451;-57
2021/01/07 04:28:04;;;;;;;29.55;15.10;;;1.90;99.90;;;;;;6370167;22;20053;-57
2021/01/07 04:30:30;;;;;;;25.45;14.85;;;1.90;99.90;;;;;;6370306;22;20484;-57
2021/01/07 04:32:56;;;;;;;27.42;14.13;;;1.90;99.90;;;;;;6369927;22;20059;-57
2021/01/07 04:35:22;;;;;;;23.85;15.43;;;1.90;99.90;;;;;;6370113;22;20242;-57
2021/01/07 04:37:48;;;;;;;27.77;14.93;;;1.90;99.90;;;;;;6370002;22;20457;-57
2021/01/07 04:40:14;;;;;;;26.35;14.68;;;1.90;99.90;;;;;;6369897;22;20004;-56
2021/01/07 04:42:41;;;;;;;24.63;15.23;;;1.80;99.90;;;;;;6370183;22;20002;-57
2021/01/07 04:45:07;;;;;;;23.70;14.55;;;1.80;99.90;;;;;;6369995;22;20443;-57
2021/01/07 04:47:33;;;;;;;29.45;16.83;;;1.80;99.90;;;;;;6369868;22;20079;-57
2021/01/07 04:50:00;;;;;;;40.50;20.20;;;1.80;99.90;;;;;;6369978;22;20427;-57
2021/01/07 04:52:26;;;;;;;26.98;15.75;;;1.70;99.90;;;;;;6369835;22;20029;-56
2021/01/07 04:54:53;;;;;;;25.40;14.48;;;1.70;99.90;;;;;;6369664;22;20006;-57
2021/01/07 04:57:20;;;;;;;28.77;15.80;;;1.70;99.90;;;;;;6369903;22;20010;-57
2021/01/07 04:59:47;;;;;;;24.73;15.23;;;1.80;99.90;;;;;;6369147;22;20002;-58
2021/01/07 05:02:15;;;;;;;27.27;16.42;;;1.70;99.90;;;;;;6368612;22;20098;-57
2021/01/07 05:04:52;;;;;;;23.02;14.60;;;1.70;99.90;;;;;;6369893;22;20005;-57
2021/01/07 05:07:19;;;;;;;25.20;15.10;;;1.70;99.90;;;;;;6369701;22;20052;-57
2021/01/07 05:09:45;;;;;;;28.88;15.60;;;1.60;99.90;;;;;;6369780;22;20017;-57
2021/01/07 05:12:12;;;;;;;24.58;16.05;;;1.60;99.90;;;;;;6369807;22;20006;-57
2021/01/07 05:14:45;;;;;;;21.27;14.80;;;1.60;99.90;;;;;;6369762;22;20077;-57
2021/01/07 05:17:12;;;;;;;22.58;13.60;;;1.60;99.90;;;;;;6369698;22;20009;-57
2021/01/07 05:19:39;;;;;;;22.65;14.38;;;1.70;99.90;;;;;;6369410;22;20022;-57
2021/01/07 05:22:05;;;;;;;25.63;15.20;;;1.80;99.90;;;;;;6369599;22;20015;-57
2021/01/07 05:24:32;;;;;;;25.42;15.25;;;1.80;99.90;;;;;;6369658;22;20002;-57
2021/01/07 05:27:15;;;;;;;32.15;17.67;;;1.80;99.90;;;;;;6369433;22;20009;-57
2021/01/07 05:29:41;;;;;;;26.33;15.82;;;1.80;99.90;;;;;;6369148;22;20022;-57
2021/01/07 05:32:09;;;;;;;30.27;17.70;;;1.80;99.90;;;;;;6369398;22;20372;-57
2021/01/07 05:34:50;;;;;;;28.58;16.73;;;1.80;99.90;;;;;;6369613;22;20029;-57
2021/01/07 05:37:18;;;;;;;33.80;19.27;;;1.80;99.90;;;;;;6369349;22;20081;-57
2021/01/07 05:39:47;;;;;;;31.80;18.17;;;1.80;99.90;;;;;;6369529;22;19998;-57
2021/01/07 05:42:14;;;;;;;32.33;17.08;;;1.90;99.90;;;;;;6368784;22;20079;-56
2021/01/07 05:44:49;;;;;;;32.22;16.80;;;1.80;99.90;;;;;;6369345;22;20075;-57
2021/01/07 05:47:43;;;;;;;28.42;15.90;;;1.70;99.90;;;;;;6369313;22;20085;-57
2021/01/07 05:50:10;;;;;;;24.77;14.02;;;1.70;99.90;;;;;;6365696;22;20017;-57
2021/01/07 05:52:44;;;;;;;22.85;13.80;;;1.70;99.90;;;;;;6369548;22;19999;-57
2021/01/07 05:55:12;;;;;;;22.98;13.85;;;1.70;99.90;;;;;;6367772;22;20002;-57
2021/01/07 05:57:39;;;;;;;23.98;13.73;;;1.70;99.90;;;;;;6367839;22;20006;-56
2021/01/07 06:00:10;;;;;;;23.05;14.43;;;1.60;99.90;;;;;;6367803;22;20003;-57
2021/01/07 06:02:38;;;;;;;20.80;13.00;;;1.70;99.90;;;;;;6367853;22;20091;-57
2021/01/07 06:05:06;;;;;;;23.00;13.40;;;1.60;99.90;;;;;;6367651;22;20030;-57
2021/01/07 06:07:32;;;;;;;19.50;12.10;;;1.50;99.90;;;;;;6367809;22;20014;-57
2021/01/07 06:09:59;;;;;;;19.20;11.38;;;1.60;99.90;;;;;;6367927;22;20344;-56
2021/01/07 06:12:25;;;;;;;18.63;12.07;;;1.60;99.90;;;;;;6367454;22;19998;-56
2021/01/07 06:14:51;;;;;;;20.55;12.00;;;1.70;99.90;;;;;;6367935;22;20005;-56
2021/01/07 06:17:20;;;;;;;16.67;10.77;;;1.70;99.90;;;;;;6367579;22;20079;-57
2021/01/07 06:19:51;;;;;;;19.80;12.13;;;1.70;99.90;;;;;;6367854;22;20161;-56
2021/01/07 06:22:17;;;;;;;18.60;12.02;;;1.80;99.90;;;;;;6367553;22;20025;-57
2021/01/07 06:24:45;;;;;;;22.65;13.68;;;1.80;99.90;;;;;;6367892;22;20010;-56
2021/01/07 06:27:23;;;;;;;21.20;12.38;;;1.90;99.90;;;;;;6367636;22;19998;-56
2021/01/07 06:29:53;;;;;;;20.63;12.68;;;1.90;99.90;;;;;;6367595;22;20025;-56
2021/01/07 06:32:20;;;;;;;25.77;13.98;;;1.90;99.90;;;;;;6367722;22;20085;-57
2021/01/07 06:34:48;;;;;;;23.70;13.60;;;2.00;99.90;;;;;;6367493;22;20006;-57
2021/01/07 06:37:28;;;;;;;26.67;13.52;;;2.00;99.90;;;;;;6367455;22;19994;-57
2021/01/07 06:39:57;;;;;;;25.10;13.02;;;2.10;99.90;;;;;;6367523;22;20359;-56
2021/01/07 06:42:24;;;;;;;23.60;14.10;;;2.10;99.90;;;;;;6369449;22;20428;-56
2021/01/07 06:44:52;;;;;;;28.73;13.98;;;2.20;99.90;;;;;;6369316;22;20047;-57
2021/01/07 06:47:19;;;;;;;24.35;13.27;;;2.20;99.90;;;;;;6369340;22;20022;-56
2021/01/07 06:49:47;;;;;;;35.72;16.98;;;2.20;99.90;;;;;;6369399;22;20009;-57
2021/01/07 06:52:13;;;;;;;28.52;17.15;;;2.20;99.90;;;;;;6370912;22;20032;-57
2021/01/07 06:54:46;;;;;;;31.52;17.00;;;2.20;99.90;;;;;;6371108;22;20002;-56
2021/01/07 06:57:15;;;;;;;41.00;20.05;;;2.30;99.90;;;;;;6371045;22;19999;-56
2021/01/07 07:00:14;;;;;;;37.75;21.00;;;2.20;99.90;;;;;;6371099;22;20535;-57
2021/01/07 07:02:59;;;;;;;45.63;23.17;;;2.20;99.90;;;;;;6319153;22;20022;-57
2021/01/07 07:05:30;;;;;;;57.10;27.05;;;2.20;99.90;;;;;;6370725;22;20029;-57
2021/01/07 07:07:59;;;;;;;54.08;26.23;;;2.20;99.90;;;;;;6370808;22;20014;-57
2021/01/07 07:10:27;;;;;;;57.25;26.85;;;2.10;99.90;;;;;;6370836;22;20005;-57
2021/01/07 07:12:54;;;;;;;41.35;23.20;;;2.00;99.90;;;;;;6369746;22;20348;-57
2021/01/07 07:15:24;;;;;;;44.22;24.13;;;1.90;99.90;;;;;;6367098;22;19999;-57
2021/01/07 07:17:55;;;;;;;48.58;25.45;;;1.90;99.90;;;;;;6369108;22;20006;-58
2021/01/07 07:20:24;;;;;;;57.75;28.38;;;1.80;99.90;;;;;;6368393;22;20135;-57
2021/01/07 07:22:50;;;;;;;55.40;26.00;;;1.80;99.90;;;;;;6367715;22;20018;-59
2021/01/07 07:25:28;;;;;;;46.67;23.88;;;1.90;99.90;;;;;;6365078;22;20023;-58
2021/01/07 07:28:00;;;;;;;51.08;22.98;;;1.90;99.90;;;;;;6367975;22;20010;-57
2021/01/07 07:30:28;;;;;;;51.00;24.40;;;2.00;99.90;;;;;;6367866;22;20026;-57
2021/01/07 07:32:55;;;;;;;54.30;25.75;;;2.10;99.90;;;;;;6368982;22;20009;-58
2021/01/07 07:35:22;;;;;;;50.88;24.83;;;2.20;99.90;;;;;;6368754;22;20002;-58
2021/01/07 07:37:49;;;;;;;51.10;26.63;;;2.40;99.90;;;;;;6369102;22;20002;-58
2021/01/07 07:40:39;;;;;;;59.05;28.60;;;2.50;99.90;;;;;;6369155;22;20002;-59
2021/01/07 07:43:07;;;;;;;62.38;29.95;;;2.60;99.90;;;;;;6368942;22;20081;-59
2021/01/07 07:45:40;;;;;;;61.05;29.55;;;2.50;99.90;;;;;;6369029;22;20049;-58
2021/01/07 07:48:08;;;;;;;62.70;30.30;;;2.60;99.90;;;;;;6368811;22;20098;-58
2021/01/07 07:50:34;;;;;;;64.22;30.70;;;2.60;99.90;;;;;;6368856;22;20485;-58
2021/01/07 07:53:13;;;;;;;61.65;30.90;;;2.70;99.90;;;;;;6368399;22;20010;-58
2021/01/07 07:55:41;;;;;;;63.13;32.90;;;2.80;99.90;;;;;;6368904;22;20406;-58
2021/01/07 07:58:10;;;;;;;70.45;32.03;;;2.80;99.90;;;;;;6340941;22;20370;-58
2021/01/07 08:00:37;;;;;;;58.40;28.15;;;2.90;99.90;;;;;;6340614;22;20010;-59
2021/01/07 08:03:03;;;;;;;64.85;31.10;;;2.80;99.90;;;;;;6368756;22;20006;-58
2021/01/07 08:05:31;;;;;;;64.35;30.85;;;2.70;99.90;;;;;;6368746;22;20002;-58
2021/01/07 08:07:58;;;;;;;79.22;38.80;;;2.50;99.90;;;;;;6368266;22;20191;-58
2021/01/07 08:10:25;;;;;;;65.68;33.20;;;2.40;99.90;;;;;;6367004;22;20044;-58
2021/01/07 08:12:51;;;;;;;54.50;29.20;;;2.30;99.90;;;;;;6339570;22;20033;-58
2021/01/07 08:15:32;;;;;;;51.53;29.88;;;2.30;99.90;;;;;;6366755;22;20014;-58
2021/01/07 08:18:21;;;;;;;51.25;27.77;;;2.40;99.90;;;;;;6368785;22;20056;-58
2021/01/07 08:20:48;;;;;;;51.03;26.40;;;2.60;99.90;;;;;;6340502;22;20014;-57
2021/01/07 08:23:15;;;;;;;48.17;25.88;;;2.70;99.90;;;;;;6368588;22;20036;-57
2021/01/07 08:25:46;;;;;;;41.50;25.50;;;2.90;99.90;;;;;;6368953;22;20085;-57
2021/01/07 08:28:15;;;;;;;47.40;24.50;;;3.10;99.90;;;;;;6368597;22;20010;-57
2021/01/07 08:30:51;;;;;;;52.10;26.67;;;3.30;99.90;;;;;;6368756;22;20005;-58
2021/01/07 08:33:20;;;;;;;53.22;26.80;;;3.60;99.90;;;;;;6368403;22;20423;-58
2021/01/07 08:35:46;;;;;;;49.53;26.40;;;3.70;99.90;;;;;;6340788;22;20324;-58
2021/01/07 08:38:32;;;;;;;51.72;27.55;;;3.70;99.90;;;;;;6368376;22;20013;-57
2021/01/07 08:41:21;;;;;;;65.47;34.30;;;3.50;99.90;;;;;;6368337;22;20006;-57
2021/01/07 08:43:50;;;;;;;63.58;34.72;;;3.40;99.90;;;;;;6368059;22;20017;-57
2021/01/07 08:46:18;;;;;;;54.95;32.10;;;3.20;99.90;;;;;;6368311;22;20004;-58
2021/01/07 08:48:56;;;;;;;62.47;32.92;;;3.20;99.90;;;;;;6367901;22;20015;-60
2021/01/07 08:51:23;;;;;;;65.22;33.30;;;3.20;99.90;;;;;;6368225;22;20025;-57
2021/01/07 08:53:50;;;;;;;67.95;35.83;;;3.10;99.90;;;;;;6368341;22;20002;-60
2021/01/07 08:56:36;;;;;;;67.13;35.47;;;3.10;99.90;;;;;;6367968;22;20002;-58
2021/01/07 08:59:25;;;;;;;56.92;32.67;;;3.10;99.90;;;;;;6368158;22;20037;-60
2021/01/07 09:02:04;;;;;;;52.67;29.67;;;3.00;99.90;;;;;;6367895;22;20057;-63
2021/01/07 09:04:34;;;;;;;51.10;28.83;;;3.10;99.90;;;;;;6367660;22;20384;-58
2021/01/07 09:07:12;;;;;;;44.40;26.52;;;3.10;99.90;;;;;;6368066;22;19998;-58
2021/01/07 09:09:38;;;;;;;45.55;25.63;;;3.20;99.90;;;;;;6368043;22;20069;-58
2021/01/07 09:12:36;;;;;;;42.28;24.92;;;3.20;99.90;;;;;;6366773;22;19995;-58
2021/01/07 09:15:23;;;;;;;47.75;26.23;;;3.30;99.90;;;;;;6360984;22;20010;-58
2021/01/07 09:17:55;;;;;;;53.10;27.95;;;3.30;99.90;;;;;;6368065;22;20017;-58
2021/01/07 09:20:34;;;;;;;45.55;28.92;;;3.30;99.90;;;;;;6368053;22;20056;-58
2021/01/07 09:23:05;;;;;;;46.95;27.13;;;3.40;99.90;;;;;;6367788;22;20069;-58
2021/01/07 09:25:31;;;;;;;44.70;23.08;;;3.50;99.90;;;;;;6367879;22;20009;-58
2021/01/07 09:27:58;;;;;;;50.17;24.30;;;3.70;99.90;;;;;;6368037;22;20104;-58
2021/01/07 09:30:25;;;;;;;47.13;22.98;;;3.80;99.90;;;;;;6340471;22;20002;-58
2021/01/07 09:32:51;;;;;;;55.45;23.65;;;4.00;99.90;;;;;;6367905;22;20048;-57
2021/01/07 09:35:17;;;;;;;61.22;26.05;;;4.10;99.90;;;;;;6367827;22;20010;-58
2021/01/07 09:37:44;;;;;;;42.92;21.73;;;4.20;99.90;;;;;;6367647;22;20010;-57
2021/01/07 09:40:11;;;;;;;39.88;21.13;;;4.30;99.90;;;;;;6367581;22;20006;-58
2021/01/07 09:42:37;;;;;;;43.67;21.45;;;4.40;99.90;;;;;;6367800;22;20045;-59
2021/01/07 09:45:08;;;;;;;40.42;22.90;;;4.60;99.90;;;;;;6367942;22;20355;-58
2021/01/07 09:47:36;;;;;;;43.50;20.05;;;4.60;99.90;;;;;;6367333;22;20003;-58
2021/01/07 09:50:06;;;;;;;44.30;22.73;;;4.80;99.90;;;;;;6367485;22;20444;-58
2021/01/07 09:52:32;;;;;;;38.80;22.80;;;4.90;99.90;;;;;;6367414;22;20374;-58
2021/01/07 09:55:06;;;;;;;44.65;24.27;;;5.00;99.90;;;;;;6367529;22;20179;-58
2021/01/07 09:57:33;;;;;;;42.17;24.92;;;5.10;99.90;;;;;;6367568;22;20394;-58
2021/01/07 09:59:59;;;;;;;47.25;26.48;;;5.20;99.90;;;;;;6367131;22;19998;-59
2021/01/07 10:02:27;;;;;;;41.10;24.45;;;5.30;99.90;;;;;;6367522;22;20005;-58
2021/01/07 10:04:53;;;;;;;42.42;22.98;;;5.40;99.90;;;;;;6367617;22;20010;-58
2021/01/07 10:07:19;;;;;;;39.30;21.10;;;5.40;99.90;;;;;;6367326;22;20558;-58
2021/01/07 10:09:44;;;;;;;39.22;21.77;;;5.30;99.90;;;;;;6367506;22;20016;-57
2021/01/07 10:12:10;;;;;;;38.15;22.20;;;5.00;99.90;;;;;;6367719;22;19998;-58
2021/01/07 10:14:36;;;;;;;40.53;23.05;;;4.90;99.90;;;;;;6367375;22;19998;-58
2021/01/07 10:17:05;;;;;;;42.13;23.10;;;4.80;99.90;;;;;;6369011;22;20002;-58
2021/01/07 10:19:40;;;;;;;40.45;23.60;;;4.80;99.90;;;;;;6369833;22;20002;-58
2021/01/07 10:22:08;;;;;;;40.22;22.52;;;4.80;99.90;;;;;;6369557;22;20083;-58
2021/01/07 10:24:46;;;;;;;191.35;34.22;;;4.80;99.90;;;;;;6369495;22;20009;-58
2021/01/07 10:27:14;;;;;;;275.83;38.22;;;4.90;99.90;;;;;;6369658;22;20003;-58
2021/01/07 10:29:41;;;;;;;76.13;25.73;;;4.90;99.90;;;;;;6369217;22;20043;-58
2021/01/07 10:32:16;;;;;;;37.70;24.60;;;5.00;99.90;;;;;;6369896;22;20401;-58
2021/01/07 10:34:50;;;;;;;40.22;23.25;;;5.00;99.90;;;;;;6369281;22;20021;-58
2021/01/07 10:37:24;;;;;;;38.65;24.75;;;4.90;99.90;;;;;;6369425;22;20439;-57
2021/01/07 10:39:51;;;;;;;40.28;25.30;;;4.90;99.90;;;;;;6369254;22;20092;-57
2021/01/07 10:42:17;;;;;;;42.33;24.10;;;4.80;99.90;;;;;;6369497;22;19998;-57
2021/01/07 10:44:45;;;;;;;41.30;23.95;;;4.70;99.90;;;;;;6369802;22;20006;-57
2021/01/07 10:47:13;;;;;;;42.58;24.50;;;4.60;99.90;;;;;;6369952;22;20029;-58
2021/01/07 10:49:42;;;;;;;44.05;24.98;;;4.40;99.90;;;;;;6369711;22;20426;-57
2021/01/07 14:32:16;;;;;;;102.75;49.85;;;2.40;99.90;;;;;;6420772;22;20028;-75
2021/01/07 14:34:46;;;;;;;116.47;53.67;;;2.40;99.90;;;;;;6422387;22;20355;-57
2021/01/07 14:37:15;;;;;;;116.50;48.38;;;2.40;99.90;;;;;;6423485;22;20066;-61
2021/01/07 14:39:41;;;;;;;89.22;42.60;;;2.50;99.90;;;;;;6423016;22;20005;-62
2021/01/07 14:42:10;;;;;;;100.30;44.28;;;2.50;99.90;;;;;;6424033;22;20467;-59
2021/01/07 14:44:36;;;;;;;86.07;41.22;;;2.40;99.90;;;;;;6426021;22;20005;-74
2021/01/07 14:47:04;;;;;;;86.40;36.60;;;2.50;99.90;;;;;;6425530;22;20005;-70
2021/01/07 14:49:31;;;;;;;76.78;35.03;;;2.50;99.90;;;;;;6422490;22;20508;-77
2021/01/07 14:51:59;;;;;;;79.60;35.15;;;2.50;99.90;;;;;;6424741;22;19998;-72
2021/01/07 14:54:31;;;;;;;75.65;33.45;;;2.40;99.90;;;;;;6424935;22;20005;-57
2021/01/07 14:57:00;;;;;;;;;;;2.40;99.90;;;;;;6422885;22;20009;-63
2021/01/07 15:00:01;;;;;;;61.50;27.17;;;2.40;99.90;;;;;;6422835;22;19909;-68
2021/01/07 15:03:09;;;;;;;51.85;25.27;;;2.20;99.90;;;;;;6397070;22;20010;-80
2021/01/07 15:05:36;;;;;;;61.58;26.65;;;2.20;99.90;;;;;;6295650;22;20011;-61
2021/01/07 15:08:19;;;;;;;64.65;29.35;;;2.00;99.90;;;;;;6400048;22;20013;-60
2021/01/07 15:10:47;;;;;;;64.45;29.58;;;1.90;99.90;;;;;;6425115;22;20042;-63
2021/01/07 15:13:19;;;;;;;75.50;30.85;;;1.80;99.90;;;;;;6427048;22;20030;-63
2021/01/07 15:15:47;;;;;;;63.60;29.55;;;1.70;99.90;;;;;;6426747;22;20437;-59
2021/01/07 15:18:37;;;;;;;68.30;28.05;;;1.60;99.90;;;;;;6426411;22;20396;-58
2021/01/07 15:21:21;;;;;;;68.97;27.38;;;1.50;99.90;;;;;;6405568;22;20013;-62
2021/01/07 15:24:13;;;;;;;55.05;24.42;;;1.50;99.90;;;;;;6424367;22;20458;-57
2021/01/07 15:27:11;;;;;;;64.47;25.40;;;1.40;99.90;;;;;;6422597;22;20448;-56
2021/01/07 15:30:04;;;;;;;54.83;24.45;;;1.50;99.90;;;;;;6428808;22;20068;-58
2021/01/07 15:32:32;;;;;;;50.25;22.85;;;1.50;99.90;;;;;;6428738;22;20078;-57
2021/01/07 15:35:10;;;;;;;54.47;23.73;;;1.50;99.90;;;;;;6427400;22;20088;-57
2021/01/07 15:37:45;;;;;;;56.95;24.67;;;1.60;99.90;;;;;;6429073;22;20339;-58
2021/01/07 15:40:35;;;;;;;53.30;25.25;;;1.60;99.90;;;;;;6427583;22;20006;-58
2021/01/07 15:43:20;;;;;;;47.25;22.15;;;1.60;99.90;;;;;;6418614;22;20050;-59
2021/01/07 15:46:04;;;;;;;49.70;22.42;;;1.60;99.90;;;;;;6428829;22;20002;-56
2021/01/07 15:48:55;;;;;;;50.28;23.90;;;1.50;99.90;;;;;;6426996;22;20096;-57
2021/01/07 15:51:54;;;;;;;57.15;24.25;;;1.40;99.90;;;;;;6428858;22;20016;-66
2021/01/07 15:54:19;;;;;;;51.45;22.20;;;1.40;99.90;;;;;;6427198;22;20008;-57
2021/01/07 15:57:19;;;;;;;51.63;23.83;;;1.40;99.90;;;;;;6428880;22;20001;-58
2021/01/07 16:00:04;;;;;;;49.20;24.00;;;1.30;99.90;;;;;;6429175;22;20009;-57
2021/01/07 16:02:34;;;;;;;48.13;22.98;;;1.40;99.90;;;;;;6428533;22;20055;-57
2021/01/07 16:05:06;;;;;;;44.60;23.00;;;1.40;99.90;;;;;;6427780;22;20009;-56
2021/01/07 16:07:37;;;;;;;53.53;24.48;;;1.40;99.90;;;;;;6428304;22;20069;-55
2021/01/07 16:10:05;;;;;;;53.90;25.23;;;1.40;99.90;;;;;;6428044;22;20774;-56
2021/01/07 16:12:31;;;;;;;52.15;25.50;;;1.40;99.90;;;;;;6428057;22;20004;-56
2021/01/07 16:14:59;;;;;;;49.15;24.40;;;1.40;99.90;;;;;;6427971;22;20458;-56
2021/01/07 16:17:27;;;;;;;47.97;23.73;;;1.30;99.90;;;;;;6429067;22;20001;-55
2021/01/07 16:19:56;;;;;;;50.10;23.70;;;1.30;99.90;;;;;;6428463;22;20012;-55
2021/01/07 16:22:30;;;;;;;47.38;22.33;;;1.30;99.90;;;;;;6428582;22;20032;-55
2021/01/07 16:25:07;;;;;;;55.35;23.60;;;1.30;99.90;;;;;;6428496;22;20474;-56
2021/01/07 16:27:40;;;;;;;47.03;23.35;;;1.30;99.90;;;;;;6428368;22;20447;-55
2021/01/07 16:30:08;;;;;;;50.47;22.92;;;1.40;99.90;;;;;;6428641;22;20036;-54
2021/01/07 16:32:34;;;;;;;45.05;21.77;;;1.40;99.90;;;;;;6428237;22;20009;-55